Time;durP1;ratioP1;P1;durP2;ratioP2;P2;SDS_P1;SDS_P2;PMS_P1;PMS_P2;Temp;Humidity;BMP_temperature;BMP_pressure;BME280_temperature;BME280_humidity;BME280_pressure;Samples;Min_cycle;Max_cycle;Signal;HPM_P1;HPM_P2
2023/07/18 00:00:35;;;;;;;7.88;3.90;;;;;;;25.70;48.73;100154.66;5106957;28;20114;-24
2023/07/18 00:03:02;;;;;;;7.72;4.10;;;;;;;25.25;49.32;100158.38;5106424;28;20114;-27
2023/07/18 00:05:27;;;;;;;10.23;4.18;;;;;;;25.15;50.13;100154.00;5106304;28;20070;-22
2023/07/18 00:07:55;;;;;;;7.70;4.28;;;;;;;24.98;50.67;100148.44;5106149;28;20119;-22
2023/07/18 00:10:20;;;;;;;;;;;;;;;25.15;50.24;100145.81;5106670;28;20469;-23
2023/07/18 00:12:46;;;;;;;7.47;3.90;;;;;;;25.10;52.32;100151.38;5105869;28;19919;-23
2023/07/18 00:15:14;;;;;;;7.22;3.92;;;;;;;25.12;50.36;100149.16;5106402;28;20040;-23
2023/07/18 00:17:41;;;;;;;6.68;3.83;;;;;;;25.12;50.86;100140.97;5106319;28;20054;-23
2023/07/18 00:20:12;;;;;;;5.75;4.05;;;;;;;25.04;50.89;100147.19;5105848;28;20084;-22
2023/07/18 00:22:40;;;;;;;5.68;3.63;;;;;;;24.82;51.64;100146.09;5106024;28;20024;-23
2023/07/18 00:25:09;;;;;;;7.78;4.07;;;;;;;24.71;52.37;100131.13;5106167;28;20050;-23
2023/07/18 00:27:42;;;;;;;6.43;3.95;;;;;;;24.80;51.71;100148.34;5105847;28;20401;-22
2023/07/18 00:30:09;;;;;;;5.78;3.70;;;;;;;24.78;52.50;100145.09;5105670;28;20517;-22
2023/07/18 00:32:35;;;;;;;6.30;3.70;;;;;;;24.57;52.77;100138.56;5105819;28;20103;-23
2023/07/18 00:35:05;;;;;;;8.10;3.83;;;;;;;24.66;52.81;100140.25;5105924;28;20031;-24
2023/07/18 00:37:31;;;;;;;5.47;3.80;;;;;;;24.80;52.93;100148.34;5105911;28;20057;-24
2023/07/18 00:39:57;;;;;;;8.23;3.80;;;;;;;25.03;53.03;100149.13;5105545;28;20510;-24
2023/07/18 00:42:22;;;;;;;5.60;3.70;;;;;;;24.83;52.82;100142.28;5106087;28;20028;-23
2023/07/18 00:44:51;;;;;;;6.05;3.60;;;;;;;24.76;53.26;100139.16;5105239;28;20038;-23
2023/07/18 00:47:22;;;;;;;6.00;4.10;;;;;;;24.73;52.77;100137.06;5105507;28;20059;-23
2023/07/18 00:49:50;;;;;;;6.20;3.60;;;;;;;25.04;52.36;100136.28;5105010;28;20501;-23
2023/07/18 00:52:16;;;;;;;6.68;3.92;;;;;;;25.08;53.20;100147.38;5104783;28;20154;-23
2023/07/18 00:54:44;;;;;;;5.70;3.70;;;;;;;24.97;53.69;100130.47;5105655;28;20147;-23
2023/07/18 00:57:11;;;;;;;6.47;3.50;;;;;;;24.80;54.09;100129.25;5104851;28;20084;-22
2023/07/18 00:59:38;;;;;;;7.55;3.97;;;;;;;24.93;52.98;100129.47;5104864;28;20043;-22
2023/07/18 01:02:05;;;;;;;6.68;3.78;;;;;;;24.80;53.24;100129.25;5105078;28;20070;-22
2023/07/18 01:04:33;;;;;;;;;;;;;;;24.65;56.11;100129.66;5105719;28;20028;-22
2023/07/18 01:07:02;;;;;;;7.10;4.05;;;;;;;24.73;56.34;100126.16;5105453;28;19904;-22
2023/07/18 01:09:27;;;;;;;7.22;3.90;;;;;;;24.96;54.11;100137.03;5105005;28;20035;-22
2023/07/18 01:11:52;;;;;;;5.78;3.42;;;;;;;24.85;55.28;100133.78;5105065;28;20028;-23
2023/07/18 01:14:24;;;;;;;5.63;3.40;;;;;;;24.86;56.08;100130.72;5104925;28;20023;-22
2023/07/18 01:16:51;;;;;;;6.70;3.80;;;;;;;24.95;55.47;100124.53;5105157;28;20031;-22
2023/07/18 01:19:17;;;;;;;8.87;3.80;;;;;;;24.82;54.26;100124.28;5104667;28;20040;-22
2023/07/18 01:21:44;;;;;;;5.82;4.38;;;;;;;24.73;56.94;100120.72;5104693;28;20104;-21
2023/07/18 01:24:10;;;;;;;6.30;4.28;;;;;;;24.51;56.54;100109.84;5104688;28;20596;-22
2023/07/18 01:26:35;;;;;;;8.15;4.10;;;;;;;24.55;57.58;100116.28;5104622;28;20032;-22
2023/07/18 01:29:01;;;;;;;6.93;4.45;;;;;;;24.32;57.67;100118.19;5104671;28;20079;-22
2023/07/18 01:31:27;;;;;;;6.10;4.15;;;;;;;24.24;55.85;100119.72;5104930;28;20054;-23
2023/07/18 01:33:55;;;;;;;7.60;4.57;;;;;;;24.38;57.16;100115.00;5104353;28;20163;-22
2023/07/18 01:36:22;;;;;;;8.13;4.30;;;;;;;24.29;58.34;100110.63;5104796;28;20080;-22
2023/07/18 01:38:48;;;;;;;5.68;4.55;;;;;;;24.03;59.29;100111.22;5104101;28;20023;-22
2023/07/18 01:41:13;;;;;;;8.88;4.95;;;;;;;24.10;59.38;100111.59;5104685;28;20397;-22
2023/07/18 01:43:40;;;;;;;7.65;5.13;;;;;;;24.06;59.23;100105.94;5104603;28;20030;-22
2023/07/18 01:46:06;;;;;;;7.00;4.72;;;;;;;24.06;59.15;100105.94;5104124;28;20106;-23
2023/07/18 01:48:32;;;;;;;12.30;5.20;;;;;;;24.00;59.80;100104.47;5104894;28;20034;-22
2023/07/18 01:50:58;;;;;;;8.95;5.15;;;;;;;24.15;57.12;100106.03;5104652;28;20428;-22
2023/07/18 01:53:26;;;;;;;7.85;4.32;;;;;;;24.04;59.91;100107.38;5104726;28;20032;-22
2023/07/18 01:55:51;;;;;;;6.43;4.80;;;;;;;24.12;59.50;100105.84;5104511;28;20028;-22
2023/07/18 01:58:16;;;;;;;7.63;4.80;;;;;;;23.96;59.51;100108.13;5104136;28;20075;-22
2023/07/18 02:00:42;;;;;;;6.90;5.30;;;;;;;23.87;59.77;100102.59;5104876;28;20514;-23
2023/07/18 02:03:07;;;;;;;7.22;4.70;;;;;;;23.86;59.38;100106.41;5104399;28;20629;-22
2023/07/18 02:05:33;;;;;;;7.18;4.43;;;;;;;24.03;59.07;100101.13;5107148;28;20061;-22
2023/07/18 02:07:59;;;;;;;7.15;4.50;;;;;;;24.18;58.51;100097.22;5108144;28;20035;-22
2023/07/18 02:10:25;;;;;;;9.45;5.07;;;;;;;24.11;59.97;100110.50;5108329;28;20027;-23
2023/07/18 02:12:53;;;;;;;8.55;5.22;;;;;;;23.90;58.94;100106.63;5108440;28;20100;-22
2023/07/18 02:15:20;;;;;;;7.18;5.00;;;;;;;23.86;59.60;100100.97;5108230;28;20023;-24
2023/07/18 02:17:45;;;;;;;7.78;4.50;;;;;;;24.09;59.91;100095.56;5108296;28;20428;-22
2023/07/18 02:20:12;;;;;;;9.05;4.88;;;;;;;23.94;59.84;100100.25;5108350;28;20028;-22
2023/07/18 02:22:41;;;;;;;6.47;4.57;;;;;;;23.75;60.79;100094.13;5108289;28;20435;-22
2023/07/18 02:25:07;;;;;;;9.48;4.78;;;;;;;23.73;61.58;100093.63;5108267;28;20031;-22
2023/07/18 02:27:34;;;;;;;9.38;5.30;;;;;;;23.70;60.00;100105.13;5108112;28;20020;-22
2023/07/18 02:30:01;;;;;;;10.95;6.65;;;;;;;23.62;59.07;100093.84;5108006;28;20516;-22
2023/07/18 02:32:30;;;;;;;10.03;5.73;;;;;;;23.73;60.82;100093.63;5108221;28;20205;-22
2023/07/18 02:34:56;;;;;;;8.18;5.85;;;;;;;23.72;59.78;100094.72;5107629;28;20678;-24
2023/07/18 02:37:23;;;;;;;7.25;5.20;;;;;;;23.66;61.28;100094.84;5107925;27;20039;-23
2023/07/18 02:39:49;;;;;;;7.85;5.30;;;;;;;23.69;59.58;100082.53;5107788;28;20024;-22
2023/07/18 02:42:15;;;;;;;10.93;5.43;;;;;;;23.53;60.00;100089.44;5107785;28;20038;-22
2023/07/18 02:44:40;;;;;;;12.68;6.18;;;;;;;23.53;60.95;100095.66;5107791;28;20032;-22
2023/07/18 02:47:06;;;;;;;9.05;5.65;;;;;;;23.27;60.93;100092.66;5107715;28;20035;-23
2023/07/18 02:49:33;;;;;;;9.80;6.10;;;;;;;23.16;60.64;100094.78;5107507;28;20061;-22
2023/07/18 02:51:59;;;;;;;12.68;6.55;;;;;;;23.39;59.46;100090.22;5108020;28;20024;-23
2023/07/18 02:54:24;;;;;;;12.02;5.95;;;;;;;23.32;59.94;100094.50;5107561;27;20032;-23
2023/07/18 02:56:50;;;;;;;10.32;6.03;;;;;;;23.10;60.25;100100.63;5107556;28;20467;-24
2023/07/18 02:59:21;;;;;;;9.35;6.95;;;;;;;22.96;61.35;100103.31;5107467;28;20093;-23
2023/07/18 03:01:49;;;;;;;14.50;8.32;;;;;;;22.75;62.20;100114.56;5107372;28;20500;-22
2023/07/18 03:04:20;;;;;;;17.55;9.20;;;;;;;22.73;62.42;100105.91;5107316;28;20032;-22
2023/07/18 03:06:53;;;;;;;15.68;8.90;;;;;;;22.41;64.64;100109.44;5107029;28;20028;-23
2023/07/18 03:09:19;;;;;;;17.27;7.50;;;;;;;22.68;65.16;100114.16;5107030;28;20759;-23
2023/07/18 03:11:45;;;;;;;18.10;7.07;;;;;;;22.56;65.17;100111.09;5106839;28;20072;-23
2023/07/18 03:14:11;;;;;;;18.13;6.75;;;;;;;22.60;65.27;100109.41;5107233;28;20032;-23
2023/07/18 03:16:38;;;;;;;15.10;6.45;;;;;;;22.64;64.88;100105.00;5106871;28;20059;-25
2023/07/18 03:19:04;;;;;;;10.68;5.97;;;;;;;22.94;64.79;100105.53;5107329;27;20027;-22
2023/07/18 03:21:29;;;;;;;9.65;5.43;;;;;;;23.06;64.74;100103.16;5106985;28;20040;-23
2023/07/18 03:23:55;;;;;;;13.07;5.80;;;;;;;23.01;63.90;100098.63;5106993;28;20077;-23
2023/07/18 03:26:21;;;;;;;12.02;5.60;;;;;;;22.91;63.80;100106.94;5106887;28;20451;-24
2023/07/18 03:28:46;;;;;;;10.93;5.85;;;;;;;22.93;65.20;100109.38;5107115;28;20027;-22
2023/07/18 03:31:11;;;;;;;12.45;5.55;;;;;;;23.01;64.61;100103.22;5106550;27;20196;-22
2023/07/18 03:33:37;;;;;;;11.70;5.15;;;;;;;23.05;64.16;100107.00;5106967;28;20348;-23
2023/07/18 03:36:05;;;;;;;11.82;5.47;;;;;;;23.18;63.04;100111.63;5106715;28;20020;-22
2023/07/18 03:38:31;;;;;;;11.55;6.13;;;;;;;23.43;63.84;100118.44;5105302;28;20733;-22
2023/07/18 03:40:58;;;;;;;10.95;6.07;;;;;;;23.37;63.29;100110.72;5106610;28;20027;-23
2023/07/18 03:43:23;;;;;;;9.63;6.20;;;;;;;23.55;62.16;100111.69;5106453;27;20028;-23
2023/07/18 03:45:52;;;;;;;14.35;6.38;;;;;;;23.72;62.23;100124.69;5106633;28;20030;-23
2023/07/18 03:48:17;;;;;;;11.05;7.43;;;;;;;23.59;62.41;100121.66;5106310;28;20030;-22
2023/07/18 03:50:43;;;;;;;17.52;7.82;;;;;;;23.36;63.00;100122.72;5106477;28;20027;-24
2023/07/18 03:53:09;;;;;;;11.90;5.82;;;;;;;23.21;63.54;100121.06;5106565;28;20032;-23
2023/07/18 03:55:35;;;;;;;11.50;5.97;;;;;;;23.22;63.56;100126.22;5106214;28;20030;-22
2023/07/18 03:58:00;;;;;;;9.05;6.20;;;;;;;23.16;63.80;100138.31;5106395;28;20035;-23
2023/07/18 04:00:26;;;;;;;11.15;5.85;;;;;;;23.18;64.68;100138.81;5106246;28;20035;-22
2023/07/18 04:02:51;;;;;;;12.80;5.63;;;;;;;23.30;62.35;100142.97;5106398;28;20103;-24
2023/07/18 04:05:17;;;;;;;12.30;6.13;;;;;;;23.41;62.48;100133.47;5106134;28;20091;-22
2023/07/18 04:07:44;;;;;;;10.88;5.70;;;;;;;23.52;63.33;100140.34;5106372;28;20016;-23
2023/07/18 04:10:11;;;;;;;9.20;5.50;;;;;;;23.52;61.53;100137.63;5106028;28;20031;-23
2023/07/18 04:12:38;;;;;;;10.50;5.82;;;;;;;23.65;63.27;100136.78;5105892;28;20030;-22
2023/07/18 04:15:06;;;;;;;8.25;5.55;;;;;;;23.71;61.59;100125.81;5106371;28;20035;-23
2023/07/18 04:17:32;;;;;;;7.80;5.28;;;;;;;23.84;61.09;100127.72;5106041;28;20023;-23
2023/07/18 04:20:00;;;;;;;15.27;5.63;;;;;;;23.86;62.03;100134.47;5105190;28;20022;-22
2023/07/18 04:22:26;;;;;;;9.52;5.47;;;;;;;23.93;62.92;100136.78;5105639;27;20054;-22
2023/07/18 04:24:55;;;;;;;11.57;5.95;;;;;;;23.99;61.15;100135.53;5106031;28;20203;-22
2023/07/18 04:27:21;;;;;;;11.48;5.95;;;;;;;23.87;61.67;100129.84;5104855;28;20027;-23
2023/07/18 04:29:47;;;;;;;8.80;5.40;;;;;;;24.04;62.83;100131.91;5105994;28;20019;-22
2023/07/18 04:32:13;;;;;;;11.38;5.20;;;;;;;23.82;63.13;100132.66;5105587;28;20043;-23
2023/07/18 04:34:38;;;;;;;8.77;5.53;;;;;;;23.94;63.55;100137.56;5105688;27;20038;-27
2023/07/18 04:37:04;;;;;;;7.43;5.65;;;;;;;23.84;63.95;100131.25;5105775;28;20023;-23
2023/07/18 04:39:30;;;;;;;9.93;5.68;;;;;;;24.00;63.34;100139.88;5105375;28;20672;-23
2023/07/18 04:41:56;;;;;;;10.60;5.75;;;;;;;24.01;64.21;100127.88;5105905;28;20098;-23
2023/07/18 04:44:24;;;;;;;7.88;5.68;;;;;;;23.99;63.82;100129.31;5105766;28;20122;-23
2023/07/18 04:46:52;;;;;;;8.43;5.65;;;;;;;23.86;64.09;100123.59;5105599;28;20028;-22
2023/07/18 04:49:18;;;;;;;8.80;5.30;;;;;;;23.98;63.58;100128.47;5105325;28;20472;-23
2023/07/18 04:51:43;;;;;;;7.13;5.05;;;;;;;23.73;63.69;100127.09;5105458;28;20031;-22
2023/07/18 04:54:08;;;;;;;8.82;5.32;;;;;;;23.74;64.20;100122.44;5105374;28;20038;-24
2023/07/18 04:56:34;;;;;;;8.48;5.40;;;;;;;23.81;64.47;100117.44;5105290;28;20027;-23
2023/07/18 04:58:59;;;;;;;9.02;5.60;;;;;;;23.86;61.98;100128.22;5104845;28;20134;-22
2023/07/18 05:01:26;;;;;;;13.35;5.93;;;;;;;23.95;61.61;100123.66;5104646;28;20026;-23
2023/07/18 05:03:54;;;;;;;10.53;6.27;;;;;;;23.98;62.28;100117.56;5105290;28;20028;-23
2023/07/18 05:06:20;;;;;;;10.32;5.70;;;;;;;24.14;61.69;100114.50;5105147;28;20031;-22
2023/07/18 05:08:47;;;;;;;10.95;5.60;;;;;;;24.39;61.42;100108.44;5105227;28;20035;-22
2023/07/18 05:11:13;;;;;;;;;;;;;;;24.43;60.35;100117.59;5105527;28;20023;-22
2023/07/18 05:13:38;;;;;;;10.37;5.63;;;;;;;24.67;60.62;100124.69;5105250;28;19911;-23
2023/07/18 05:16:04;;;;;;;8.25;5.28;;;;;;;24.80;59.61;100115.59;5104883;28;20273;-21
2023/07/18 05:18:30;;;;;;;10.32;5.57;;;;;;;25.07;59.64;100113.84;5105208;28;20560;-21
2023/07/18 05:20:59;;;;;;;9.23;5.47;;;;;;;25.28;58.01;100116.03;5104598;28;20108;-21
2023/07/18 05:23:27;;;;;;;7.45;5.15;;;;;;;25.30;58.04;100120.03;5104794;28;20024;-22
2023/07/18 05:25:53;;;;;;;8.45;4.60;;;;;;;25.50;54.33;100121.38;5104705;28;20023;-21
2023/07/18 05:28:18;;;;;;;6.80;4.82;;;;;;;25.62;53.55;100113.38;5104890;28;20111;-22
2023/07/18 05:30:44;;;;;;;8.50;5.30;;;;;;;25.64;54.64;100122.06;5104918;28;20285;-22
2023/07/18 05:33:12;;;;;;;7.35;4.70;;;;;;;25.65;53.57;100109.19;5104656;28;20068;-24
2023/07/18 05:35:37;;;;;;;7.53;4.55;;;;;;;25.79;52.63;100130.91;5105060;28;20063;-22
2023/07/18 05:38:02;;;;;;;8.68;5.03;;;;;;;25.99;52.26;100122.13;5104871;28;20050;-22
2023/07/18 05:40:31;;;;;;;7.13;4.50;;;;;;;25.67;53.85;100110.47;5104595;28;20020;-23
2023/07/18 05:42:56;;;;;;;10.60;5.20;;;;;;;25.95;53.29;100110.22;5104630;28;20032;-22
2023/07/18 05:45:24;;;;;;;7.70;4.68;;;;;;;26.20;51.72;100110.53;5104786;28;20035;-22
2023/07/18 05:47:50;;;;;;;8.45;4.55;;;;;;;26.20;51.87;100111.34;5104752;28;20027;-22
2023/07/18 05:50:16;;;;;;;7.40;4.25;;;;;;;26.28;51.20;100111.66;5104664;28;20425;-22
2023/07/18 05:52:45;;;;;;;9.70;4.75;;;;;;;26.54;49.67;100120.63;5104358;28;20157;-23
2023/07/18 05:55:12;;;;;;;7.35;4.53;;;;;;;26.58;50.53;100104.38;5104628;28;20471;-23
2023/07/18 05:57:40;;;;;;;6.63;4.60;;;;;;;26.76;49.67;100114.16;5104561;28;20031;-22
2023/07/18 06:00:06;;;;;;;6.95;4.18;;;;;;;26.67;50.88;100112.59;5103714;28;20067;-23
2023/07/18 06:02:31;;;;;;;7.68;5.07;;;;;;;26.79;50.65;100110.78;5104535;28;20535;-22
2023/07/18 06:04:57;;;;;;;10.05;4.57;;;;;;;26.86;50.21;100100.09;5104263;28;20420;-24
2023/07/18 06:07:22;;;;;;;11.07;5.13;;;;;;;26.68;49.54;100109.50;5104471;28;20089;-23
2023/07/18 06:09:52;;;;;;;8.80;4.93;;;;;;;26.86;49.01;100107.53;5104148;28;20024;-23
2023/07/18 06:12:17;;;;;;;7.93;4.32;;;;;;;26.95;48.49;100093.78;5104116;28;20591;-23
2023/07/18 06:14:43;;;;;;;7.15;4.80;;;;;;;26.91;50.31;100088.19;5103908;28;20118;-23
2023/07/18 06:17:08;;;;;;;6.05;4.40;;;;;;;27.16;49.54;100086.47;5104556;28;20408;-23
2023/07/18 06:19:34;;;;;;;7.97;4.90;;;;;;;27.05;51.81;100080.56;5104385;28;20127;-23
2023/07/18 06:21:59;;;;;;;7.45;4.65;;;;;;;27.40;51.53;100082.31;5104393;28;20023;-23
2023/07/18 06:24:25;;;;;;;11.02;5.03;;;;;;;27.44;49.84;100075.06;5104079;28;20482;-23
2023/07/18 06:26:50;;;;;;;9.10;4.93;;;;;;;27.71;49.74;100076.50;5104183;28;20016;-23
2023/07/18 06:29:20;;;;;;;9.07;5.53;;;;;;;27.68;49.30;100071.66;5103929;28;20031;-24
2023/07/18 06:31:46;;;;;;;9.77;4.32;;;;;;;27.82;46.65;100068.66;5103957;28;20510;-23
2023/07/18 06:34:11;;;;;;;8.65;4.40;;;;;;;27.61;48.51;100064.00;5104352;28;20131;-26
2023/07/18 06:36:37;;;;;;;7.75;4.90;;;;;;;27.70;46.89;100071.34;5104601;28;20518;-23
2023/07/18 06:39:05;;;;;;;9.57;5.25;;;;;;;27.82;47.08;100068.66;5104383;28;20023;-22
2023/07/18 06:41:33;;;;;;;8.00;4.90;;;;;;;27.94;46.75;100060.53;5104539;28;20031;-23
2023/07/18 06:43:59;;;;;;;8.98;4.78;;;;;;;28.06;46.27;100062.53;5104125;28;20080;-23
2023/07/18 06:46:24;;;;;;;7.20;5.00;;;;;;;28.17;45.05;100060.94;5103898;28;20027;-23
2023/07/18 06:48:50;;;;;;;7.45;4.78;;;;;;;28.33;45.41;100057.59;5103861;28;20428;-23
2023/07/18 06:51:15;;;;;;;6.20;4.72;;;;;;;28.35;45.14;100069.81;5105920;28;20024;-23
2023/07/18 06:53:41;;;;;;;7.70;5.00;;;;;;;28.45;46.03;100058.41;5107739;28;20023;-25
2023/07/18 06:56:06;;;;;;;7.05;5.10;;;;;;;28.59;45.04;100057.34;5107972;28;20020;-23
2023/07/18 06:58:32;;;;;;;8.57;5.15;;;;;;;28.77;44.12;100064.22;5107594;28;20040;-23
2023/07/18 07:00:59;;;;;;;8.02;4.90;;;;;;;28.82;43.48;100063.97;5107684;28;20054;-23
2023/07/18 07:03:28;;;;;;;9.93;5.13;;;;;;;28.97;44.58;100067.19;5107737;28;20031;-23
2023/07/18 07:05:53;;;;;;;8.65;5.63;;;;;;;28.97;43.82;100072.69;5107866;28;20027;-23
2023/07/18 07:08:21;;;;;;;10.00;5.32;;;;;;;29.07;42.01;100060.44;5107611;28;20470;-23
2023/07/18 07:10:46;;;;;;;;;;;;;;;29.21;42.16;100056.22;5108193;28;20104;-23
2023/07/18 07:13:12;;;;;;;9.77;4.85;;;;;;;29.10;42.62;100057.03;5107309;28;19943;-25
2023/07/18 07:15:37;;;;;;;11.68;5.25;;;;;;;29.36;44.10;100056.66;5107648;28;20109;-23
2023/07/18 07:18:03;;;;;;;7.80;4.60;;;;;;;29.58;42.57;100058.13;5107230;28;20042;-23
2023/07/18 07:20:33;;;;;;;7.93;5.07;;;;;;;29.55;44.00;100047.84;5107545;28;20039;-23
2023/07/18 07:22:59;;;;;;;8.75;5.10;;;;;;;29.50;42.71;100056.31;5107242;27;20020;-23
2023/07/18 07:25:30;;;;;;;10.60;5.03;;;;;;;29.40;42.22;100047.41;5107109;28;20019;-23
2023/07/18 07:27:56;;;;;;;8.15;4.95;;;;;;;29.68;39.74;100056.84;5107295;28;20127;-22
2023/07/18 07:30:22;;;;;;;9.15;5.00;;;;;;;29.62;39.92;100054.31;5106906;28;20111;-23
2023/07/18 07:32:51;;;;;;;8.30;4.85;;;;;;;29.79;39.76;100041.47;5107089;28;20031;-23
2023/07/18 07:35:17;;;;;;;9.32;5.40;;;;;;;29.98;40.83;100055.38;5106933;28;20069;-25
2023/07/18 07:37:42;;;;;;;8.15;4.95;;;;;;;30.43;40.68;100054.25;5106801;28;20032;-25
2023/07/18 07:40:11;;;;;;;8.77;5.32;;;;;;;30.57;39.52;100062.09;5107363;28;20028;-23
2023/07/18 07:42:44;;;;;;;10.32;5.03;;;;;;;30.38;40.37;100045.47;5106885;27;20023;-23
2023/07/18 07:45:11;;;;;;;8.75;4.65;;;;;;;30.72;39.99;100056.94;5107331;28;20032;-23
2023/07/18 07:47:37;;;;;;;10.05;5.18;;;;;;;30.97;38.73;100060.31;5106609;28;20102;-22
2023/07/18 07:50:05;;;;;;;11.45;5.20;;;;;;;31.00;37.96;100040.34;5106389;28;20084;-23
2023/07/18 07:52:31;;;;;;;9.35;4.75;;;;;;;31.30;38.37;100048.09;5106765;28;20116;-24
2023/07/18 07:54:57;;;;;;;7.20;4.68;;;;;;;31.71;38.18;100045.84;5106987;28;20081;-24
2023/07/18 07:57:22;;;;;;;8.63;5.07;;;;;;;31.87;36.60;100043.81;5106898;28;20118;-24
2023/07/18 07:59:48;;;;;;;9.75;5.25;;;;;;;31.98;37.04;100044.81;5106368;28;20432;-23
2023/07/18 08:02:14;;;;;;;8.23;4.70;;;;;;;32.17;37.04;100044.03;5105423;28;20161;-24
2023/07/18 08:04:41;;;;;;;8.50;5.32;;;;;;;32.05;35.42;100035.13;5106502;28;20036;-23
2023/07/18 08:07:07;;;;;;;8.88;4.80;;;;;;;32.02;36.79;100042.97;5106240;28;20028;-24
2023/07/18 08:09:33;;;;;;;7.82;4.80;;;;;;;32.02;36.89;100031.94;5105637;28;20032;-24
2023/07/18 08:11:58;;;;;;;11.52;5.20;;;;;;;32.20;35.89;100031.44;5106327;28;20076;-23
2023/07/18 08:14:24;;;;;;;10.50;4.85;;;;;;;32.49;35.17;100037.47;5106223;28;20130;-24
2023/07/18 08:16:49;;;;;;;8.98;5.70;;;;;;;32.48;35.98;100024.84;5106324;28;20027;-24
2023/07/18 08:19:15;;;;;;;11.18;5.53;;;;;;;32.63;35.04;100029.47;5106405;28;20085;-25
2023/07/18 08:21:41;;;;;;;9.23;5.30;;;;;;;32.35;34.51;100025.03;5106068;27;20559;-24
2023/07/18 08:24:09;;;;;;;8.48;5.15;;;;;;;32.26;36.68;100021.72;5106301;28;20111;-24
2023/07/18 08:26:34;;;;;;;7.38;5.20;;;;;;;32.42;35.57;100016.88;5105833;28;20508;-24
2023/07/18 08:28:59;;;;;;;9.85;5.88;;;;;;;32.74;35.58;100027.69;5106281;28;20492;-24
2023/07/18 08:31:29;;;;;;;7.30;5.22;;;;;;;32.69;36.07;100019.69;5105619;28;20024;-23
2023/07/18 08:33:54;;;;;;;9.68;5.40;;;;;;;32.53;36.04;100016.25;5105723;28;20024;-25
2023/07/18 08:36:20;;;;;;;7.93;5.30;;;;;;;32.40;35.85;100018.41;5105837;28;20447;-24
2023/07/18 08:38:52;;;;;;;8.75;5.32;;;;;;;32.30;36.95;100019.81;5105570;28;20023;-25
2023/07/18 08:41:19;;;;;;;9.32;5.10;;;;;;;32.73;37.19;100009.50;5105653;28;20105;-24
2023/07/18 08:43:46;;;;;;;9.63;5.38;;;;;;;32.48;36.89;100006.31;5105909;28;20027;-25
2023/07/18 08:46:16;;;;;;;8.75;5.43;;;;;;;32.69;37.48;100008.66;5105966;28;20081;-25
2023/07/18 08:48:45;;;;;;;11.77;5.82;;;;;;;32.98;36.32;100009.13;5105793;28;20097;-24
2023/07/18 08:51:14;;;;;;;6.65;5.32;;;;;;;33.21;35.71;100007.09;5105489;28;20074;-24
2023/07/18 08:53:43;;;;;;;9.65;6.45;;;;;;;33.30;34.38;100009.56;5105486;28;20034;-24
2023/07/18 08:56:09;;;;;;;9.45;5.55;;;;;;;33.09;35.84;99999.03;5105549;28;20030;-24
2023/07/18 08:58:36;;;;;;;8.45;5.88;;;;;;;33.51;34.73;100000.78;5105345;28;20052;-24
2023/07/18 09:01:11;;;;;;;7.35;5.55;;;;;;;33.41;34.29;100004.19;5105401;28;20019;-23
2023/07/18 09:03:39;;;;;;;10.75;6.05;;;;;;;33.50;34.55;99996.41;5105024;28;20032;-24
2023/07/18 09:06:18;;;;;;;8.50;5.97;;;;;;;33.64;34.81;99997.78;5105272;28;20111;-23
2023/07/18 09:08:43;;;;;;;7.80;6.13;;;;;;;33.85;35.57;99995.25;5105259;28;20038;-25
2023/07/18 09:11:12;;;;;;;10.27;6.35;;;;;;;33.88;35.73;99988.16;5105582;28;20453;-24
2023/07/18 09:13:39;;;;;;;8.40;6.32;;;;;;;33.75;34.99;99990.41;5104684;28;20063;-24
2023/07/18 09:16:13;;;;;;;9.65;6.30;;;;;;;34.09;34.55;99984.84;5105152;28;20034;-24
2023/07/18 09:18:42;;;;;;;10.52;6.60;;;;;;;34.19;34.22;99989.72;5104699;28;20062;-24
2023/07/18 09:21:11;;;;;;;15.00;7.00;;;;;;;34.39;33.33;99985.53;5105047;28;20031;-24
2023/07/18 09:23:41;;;;;;;11.52;6.45;;;;;;;34.56;35.42;99977.75;5104953;28;20072;-24
2023/07/18 09:26:10;;;;;;;9.77;6.68;;;;;;;34.73;34.59;99977.09;5105019;28;20039;-24
2023/07/18 09:28:36;;;;;;;10.57;6.93;;;;;;;35.10;32.74;99970.59;5105031;28;20051;-24
2023/07/18 09:31:02;;;;;;;8.93;6.28;;;;;;;34.77;34.44;99963.28;5105016;28;20051;-24
2023/07/18 09:33:28;;;;;;;8.10;5.78;;;;;;;34.99;34.13;99956.69;5104597;28;20071;-23
2023/07/18 09:35:58;;;;;;;11.93;6.20;;;;;;;34.96;33.23;99960.25;5104533;28;20556;-24
2023/07/18 09:38:25;;;;;;;10.43;6.82;;;;;;;35.35;33.19;99967.16;5104835;28;20030;-24
2023/07/18 09:40:52;;;;;;;8.45;6.00;;;;;;;35.00;33.57;99951.94;5103674;28;20024;-24
2023/07/18 09:43:19;;;;;;;;;;;;;;;35.57;33.60;99956.94;5105294;28;20035;-24
2023/07/18 09:45:45;;;;;;;12.57;6.85;;;;;;;35.75;33.15;99951.47;5104762;28;19916;-26
2023/07/18 09:48:11;;;;;;;7.82;6.35;;;;;;;35.96;32.29;99945.97;5104905;28;20019;-24
2023/07/18 09:50:40;;;;;;;10.25;6.82;;;;;;;36.01;32.00;99948.34;5104410;28;20419;-24
2023/07/18 09:53:11;;;;;;;9.02;6.50;;;;;;;36.12;32.70;99926.13;5104417;28;20085;-24
2023/07/18 09:55:38;;;;;;;9.82;6.70;;;;;;;36.19;31.77;99933.72;5104965;28;20416;-24
2023/07/18 09:58:05;;;;;;;15.15;8.02;;;;;;;36.42;32.06;99940.84;5105069;28;20024;-24
2023/07/18 10:00:32;;;;;;;9.32;6.70;;;;;;;35.99;32.67;99927.75;5105690;28;20042;-23
2023/07/18 10:02:58;;;;;;;9.02;7.03;;;;;;;36.32;31.30;99929.34;5105953;28;20024;-23
2023/07/18 10:05:24;;;;;;;10.77;7.03;;;;;;;36.77;32.14;99918.56;5105895;28;20073;-23
2023/07/18 10:07:50;;;;;;;11.48;7.55;;;;;;;36.74;30.67;99922.19;5105740;28;20047;-23
2023/07/18 10:10:19;;;;;;;10.63;7.20;;;;;;;36.83;31.29;99915.41;5105884;28;20066;-23
2023/07/18 10:12:53;;;;;;;8.60;6.68;;;;;;;37.15;30.47;99901.41;5104373;28;20084;-28
2023/07/18 10:15:21;;;;;;;10.82;6.53;;;;;;;36.94;31.45;99903.06;5106015;28;20024;-23
2023/07/18 10:17:52;;;;;;;9.63;7.95;;;;;;;37.15;30.49;99904.97;5105342;28;20034;-23
2023/07/18 10:20:23;;;;;;;11.13;7.57;;;;;;;37.59;30.06;99895.22;5105340;28;20035;-23
2023/07/18 10:23:00;;;;;;;8.50;7.20;;;;;;;37.68;31.59;99888.41;5105473;28;20069;-23
2023/07/18 10:25:30;;;;;;;8.77;7.03;;;;;;;37.89;30.53;99885.47;5105523;28;20097;-23
2023/07/18 10:28:00;;;;;;;10.77;7.72;;;;;;;37.77;29.98;99889.53;5109351;28;20038;-23
2023/07/18 10:30:41;;;;;;;10.60;7.35;;;;;;;37.74;30.67;99872.84;5109367;28;20051;-23
2023/07/18 10:33:12;;;;;;;8.30;6.95;;;;;;;38.15;30.90;99861.03;5109105;28;20028;-23
2023/07/18 10:35:41;;;;;;;11.73;7.38;;;;;;;38.51;29.53;99872.59;5109368;28;20041;-23
2023/07/18 10:38:14;;;;;;;10.18;7.03;;;;;;;38.65;28.22;99862.53;5109015;28;20519;-23
2023/07/18 10:40:44;;;;;;;10.02;7.00;;;;;;;38.61;29.09;99853.41;5109181;28;20023;-23
2023/07/18 10:43:11;;;;;;;13.25;7.88;;;;;;;39.16;29.02;99855.91;5109062;28;20057;-23
2023/07/18 10:45:40;;;;;;;9.30;7.35;;;;;;;39.35;28.23;99868.38;5108979;28;20031;-23
2023/07/18 10:48:13;;;;;;;10.40;7.15;;;;;;;39.33;26.81;99858.88;5108761;28;20042;-23
2023/07/18 10:50:43;;;;;;;10.25;7.07;;;;;;;39.32;26.52;99860.88;5108714;28;20027;-23
2023/07/18 10:53:13;;;;;;;9.63;6.30;;;;;;;39.81;26.43;99848.59;5108975;28;20019;-23
2023/07/18 10:55:45;;;;;;;10.18;7.18;;;;;;;39.83;27.15;99846.97;5108762;28;20036;-23
2023/07/18 10:58:28;;;;;;;8.98;7.30;;;;;;;39.46;26.49;99851.53;5108672;28;21139;-23
2023/07/18 11:00:53;;;;;;;10.70;7.05;;;;;;;39.71;28.14;99844.78;5108919;28;20081;-23
2023/07/18 11:03:39;;;;;;;9.97;7.10;;;;;;;39.92;27.01;99833.25;5108817;28;20028;-23
2023/07/18 11:06:05;;;;;;;11.32;7.55;;;;;;;40.35;26.52;99838.09;5108982;28;20023;-23
2023/07/18 11:08:33;;;;;;;12.83;8.03;;;;;;;40.56;25.52;99833.28;5108664;28;20031;-23
2023/07/18 11:11:02;;;;;;;8.57;6.68;;;;;;;40.06;25.31;99817.47;5108851;28;20016;-23
2023/07/18 11:13:33;;;;;;;9.85;7.10;;;;;;;39.96;25.74;99828.41;5108186;28;20104;-23
2023/07/18 11:16:06;;;;;;;10.00;7.03;;;;;;;40.43;26.74;99827.56;5108726;28;20111;-23
2023/07/18 11:18:40;;;;;;;9.55;6.93;;;;;;;40.19;26.33;99821.22;5108331;28;20043;-23
2023/07/18 11:21:07;;;;;;;10.35;7.28;;;;;;;40.35;26.58;99826.91;5107287;28;20119;-24
2023/07/18 11:23:34;;;;;;;;;;;;;;;40.77;25.13;99826.53;5107737;28;20027;-24
2023/07/18 11:25:59;;;;;;;13.45;12.15;;;;;;;40.87;25.06;99827.50;5107750;28;19965;-24